Tropical Cyclones
[Index]
Main Index Home Page Stock Weather Photos Extreme Storms Discussion Storm News and Storm Chasing Reports Tropical Cyclones / Hurricanes / Typhoons Weather Data and Links Wild Fires / Bushfires Weather Observation Techniques Weather Picture Catalogue Tornado Pictures and Reports Stock Video Footage and DVDs for sale
Season 1986-1987 Tropical Cyclone YALI Track Map
Season 1986-1987 Summaries: [BoM-AU] [JTWC-AU] [JTWC-SIO] [JTWC-SPAC] [JTWC-SH]
<<- Previous TC | JTWC 1986-1987 Season | Next TC ->>

click for intensity scale information  Lat/long Grid: Show Hide

 Date Labels: Show Hide

Joint Typhoon Warning Centre Cyclone Data

Name: YALI

05 Mar 1987 12:00 UTC to 12 Mar 1987 00:00 UTC

    date/time    lat    long     hPa   cat  kts
1987-03-05 12   10.9   164.0                  25          
1987-03-05 18   11.3   164.4                  25          
1987-03-06 00   11.7   164.8                  25          
1987-03-06 06   12.3   165.0                  25          
1987-03-06 12   12.7   165.1                  25          
1987-03-06 18   13.2   165.1                  25          
1987-03-07 00   13.6   165.0                  25          
1987-03-07 06   13.9   164.9                  25          
1987-03-07 12   14.3   164.8                  25          
1987-03-07 18   14.8   164.7                  25          
1987-03-08 00   15.3   164.5                  30          
1987-03-08 06   15.7   164.2                  30          
1987-03-08 12   16.1   164.0                  35          
1987-03-08 18   16.6   163.9            1     40          
1987-03-09 00   17.0   163.8            1     50          
1987-03-09 06   17.3   163.7            2     65          
1987-03-09 12   17.6   163.6            2     65          
1987-03-09 18   17.9   163.6            2     65          
1987-03-10 00   18.0   163.7            2     65          
1987-03-10 06   18.2   163.7            2     65          
1987-03-10 12   18.4   163.9            2     60          
1987-03-10 18   18.8   164.3            2     55          
1987-03-11 00   19.2   164.5            1     45          
1987-03-11 06   19.5   165.0            1     40          
1987-03-11 12   20.0   165.7                  35          
1987-03-11 18   20.2   167.2                  35          
1987-03-12 00   20.0   169.5                  30          
Winds are 1-min average.

Tropical cyclone tracks developed by Michael Bath using data from the Joint Typhoon Warning Centre Best Tracks and Google Maps.


[Australian Severe Weather index] [Copyright Notice] [Email Contacts] [Search This Site] [Privacy Policy]
Document: tropical_cyclone_yali.htm Updated: 18 September 2016